createdAt,value
2016-01-21T00:00:17.850Z,1010.51
2016-01-21T00:01:17.884Z,1010.51
2016-01-21T00:02:17.934Z,1010.55
2016-01-21T00:03:17.967Z,1010.56
2016-01-21T00:04:18.001Z,1010.57
2016-01-21T00:05:18.036Z,1010.62
2016-01-21T00:06:18.085Z,1010.59
2016-01-21T00:07:18.119Z,1010.59
2016-01-21T00:08:18.153Z,1010.59
2016-01-21T00:09:18.203Z,1010.61
2016-01-21T00:10:18.236Z,1010.64
2016-01-21T00:11:18.269Z,1010.64
2016-01-21T00:12:18.304Z,1010.64
2016-01-21T00:13:18.354Z,1010.67
2016-01-21T00:14:18.388Z,1010.69
2016-01-21T00:15:18.422Z,1010.67
2016-01-21T00:16:18.471Z,1010.69
2016-01-21T00:17:18.504Z,1010.72
2016-01-21T00:18:18.538Z,1010.72
2016-01-21T00:19:18.573Z,1010.7
2016-01-21T00:20:18.638Z,1010.71
2016-01-21T00:21:18.657Z,1010.74
2016-01-21T00:22:18.706Z,1010.78
2016-01-21T00:23:18.740Z,1010.8
2016-01-21T00:24:18.773Z,1010.78
2016-01-21T00:25:18.807Z,1010.81
2016-01-21T00:26:18.850Z,1010.8
2016-01-21T00:27:18.874Z,1010.78
2016-01-21T00:28:18.927Z,1010.79
2016-01-21T00:29:18.920Z,1010.79
2016-01-21T00:30:18.959Z,1010.8
2016-01-21T00:31:18.986Z,1010.83
2016-01-21T00:32:19.016Z,1010.8
2016-01-21T00:33:19.062Z,1010.81
2016-01-21T00:34:19.093Z,1010.82
2016-01-21T00:35:19.123Z,1010.86
2016-01-21T00:36:19.155Z,1010.87
2016-01-21T00:37:19.203Z,1010.88
2016-01-21T00:38:19.235Z,1010.86
2016-01-21T00:39:19.284Z,1010.87
2016-01-21T00:40:19.316Z,1010.9
2016-01-21T00:41:19.350Z,1010.88
2016-01-21T00:42:19.383Z,1010.87
2016-01-21T00:43:19.416Z,1010.88
2016-01-21T00:44:19.465Z,1010.95
2016-01-21T00:45:19.497Z,1010.92
2016-01-21T00:46:19.531Z,1010.94
2016-01-21T00:47:19.581Z,1010.92
2016-01-21T00:48:19.616Z,1010.89
2016-01-21T00:49:19.649Z,1010.91
2016-01-21T00:50:19.699Z,1010.91
2016-01-21T00:51:19.733Z,1010.91
2016-01-21T00:52:19.766Z,1010.92
2016-01-21T00:53:19.816Z,1010.97
2016-01-21T00:54:19.850Z,1010.97
2016-01-21T00:55:19.884Z,1010.94
2016-01-21T00:56:19.933Z,1010.95
2016-01-21T00:57:19.999Z,1011
2016-01-21T00:58:20.002Z,1010.97
2016-01-21T00:59:20.035Z,1010.98
2016-01-21T01:00:20.069Z,1010.99
2016-01-21T01:01:20.118Z,1010.96
2016-01-21T01:02:20.168Z,1011
2016-01-21T01:03:20.202Z,1011
2016-01-21T01:04:20.237Z,1011.02
2016-01-21T01:05:20.271Z,1011.01
2016-01-21T01:06:20.320Z,1011.02
2016-01-21T01:07:20.354Z,1011.07
2016-01-21T01:08:20.387Z,1011.02
2016-01-21T01:09:20.422Z,1011.07
2016-01-21T01:10:20.471Z,1011.14
2016-01-21T01:11:20.506Z,1011.14
2016-01-21T01:12:20.539Z,1011.15
2016-01-21T01:13:20.589Z,1011.14
2016-01-21T01:14:20.623Z,1011.1
2016-01-21T01:15:20.656Z,1011.17
2016-01-21T01:16:20.705Z,1011.18
2016-01-21T01:17:20.739Z,1011.2
2016-01-21T01:18:20.774Z,1011.18
2016-01-21T01:19:20.808Z,1011.18
2016-01-21T01:20:20.858Z,1011.18
2016-01-21T01:21:20.892Z,1011.2
2016-01-21T01:22:20.925Z,1011.21
2016-01-21T01:23:20.975Z,1011.24
2016-01-21T01:24:21.008Z,1011.27
2016-01-21T01:25:21.043Z,1011.25
2016-01-21T01:26:21.077Z,1011.26
2016-01-21T01:27:21.127Z,1011.27
2016-01-21T01:28:21.161Z,1011.29
2016-01-21T01:29:21.194Z,1011.3
2016-01-21T01:30:21.243Z,1011.34
2016-01-21T01:31:21.277Z,1011.33
2016-01-21T01:32:21.312Z,1011.34
2016-01-21T01:33:21.362Z,1011.3
2016-01-21T01:34:21.396Z,1011.3
2016-01-21T01:35:21.429Z,1011.31
2016-01-21T01:36:21.462Z,1011.37
2016-01-21T01:37:21.512Z,1011.34
2016-01-21T01:38:21.546Z,1011.32
2016-01-21T01:39:21.581Z,1011.36
2016-01-21T01:40:21.676Z,1011.35
2016-01-21T01:41:21.664Z,1011.37
2016-01-21T01:42:21.698Z,1011.37
2016-01-21T01:43:21.731Z,1011.37
2016-01-21T01:44:21.781Z,1011.36
2016-01-21T01:45:21.815Z,1011.38
2016-01-21T01:46:21.850Z,1011.38
2016-01-21T01:47:21.899Z,1011.34
2016-01-21T01:48:21.933Z,1011.37
2016-01-21T01:49:21.967Z,1011.36
2016-01-21T01:50:22.017Z,1011.39
2016-01-21T01:51:22.050Z,1011.37
2016-01-21T01:52:22.084Z,1011.38
2016-01-21T01:53:22.118Z,1011.4
2016-01-21T01:54:22.168Z,1011.42
2016-01-21T01:55:22.217Z,1011.42
2016-01-21T01:56:22.236Z,1011.41
2016-01-21T01:57:22.285Z,1011.39
2016-01-21T01:58:22.318Z,1011.39
2016-01-21T01:59:22.352Z,1011.41
2016-01-21T02:00:22.402Z,1011.38
2016-01-21T02:01:22.437Z,1011.4
2016-01-21T02:02:22.471Z,1011.38
2016-01-21T02:03:22.521Z,1011.44
2016-01-21T02:04:22.554Z,1011.41
2016-01-21T02:05:22.587Z,1011.39
2016-01-21T02:06:22.621Z,1011.4
2016-01-21T02:07:22.671Z,1011.41
2016-01-21T02:08:22.721Z,1011.41
2016-01-21T02:09:22.740Z,1011.44
2016-01-21T02:10:22.774Z,1011.43
2016-01-21T02:11:22.839Z,1011.43
2016-01-21T02:12:22.856Z,1011.43
2016-01-21T02:13:22.890Z,1011.46
2016-01-21T02:14:22.940Z,1011.46
2016-01-21T02:15:22.975Z,1011.44
2016-01-21T02:16:23.008Z,1011.46
2016-01-21T02:17:23.058Z,1011.46
2016-01-21T02:18:23.092Z,1011.48
2016-01-21T02:19:23.125Z,1011.51
2016-01-21T02:20:23.159Z,1011.49
2016-01-21T02:21:23.208Z,1011.5
2016-01-21T02:22:23.243Z,1011.49
2016-01-21T02:23:23.277Z,1011.53
2016-01-21T02:24:23.311Z,1011.53
2016-01-21T02:25:23.361Z,1011.5
2016-01-21T02:26:23.410Z,1011.49
2016-01-21T02:27:23.428Z,1011.52
2016-01-21T02:28:23.463Z,1011.53
2016-01-21T02:29:23.512Z,1011.53
2016-01-21T02:30:23.561Z,1011.48
2016-01-21T02:31:23.580Z,1011.52
2016-01-21T02:32:23.630Z,1011.5
2016-01-21T02:33:23.663Z,1011.53
2016-01-21T02:34:23.697Z,1011.55
2016-01-21T02:35:23.746Z,1011.51
2016-01-21T02:36:23.781Z,1011.52
2016-01-21T02:37:23.815Z,1011.54
2016-01-21T02:38:23.865Z,1011.55
2016-01-21T02:39:24.008Z,1011.53
2016-01-21T02:40:23.931Z,1011.52
2016-01-21T02:41:23.965Z,1011.55
2016-01-21T02:42:24.015Z,1011.55
2016-01-21T02:43:24.050Z,1011.57
2016-01-21T02:44:24.084Z,1011.54
2016-01-21T02:45:24.133Z,1011.55
2016-01-21T02:46:24.167Z,1011.56
2016-01-21T02:47:24.200Z,1011.57
2016-01-21T02:48:24.266Z,1011.54
2016-01-21T02:49:24.284Z,1011.55
2016-01-21T02:50:24.319Z,1011.49
2016-01-21T02:51:24.353Z,1011.51
2016-01-21T02:52:24.402Z,1011.52
2016-01-21T02:53:24.436Z,1011.48
2016-01-21T02:54:24.469Z,1011.48
2016-01-21T02:55:24.503Z,1011.5
2016-01-21T02:56:24.553Z,1011.52
2016-01-21T02:57:24.588Z,1011.52
2016-01-21T02:58:24.636Z,1011.5
2016-01-21T02:59:24.671Z,1011.49
2016-01-21T03:00:24.736Z,1011.51
2016-01-21T03:01:24.738Z,1011.5
2016-01-21T03:02:24.804Z,1011.52
2016-01-21T03:03:24.821Z,1011.52
2016-01-21T03:04:24.856Z,1011.5
2016-01-21T03:05:24.905Z,1011.53
2016-01-21T03:06:24.940Z,1011.55
2016-01-21T03:07:24.990Z,1011.56
2016-01-21T03:08:25.023Z,1011.6
2016-01-21T03:09:25.057Z,1011.66
2016-01-21T03:10:25.090Z,1011.65
2016-01-21T03:11:25.140Z,1011.67
2016-01-21T03:12:25.174Z,1011.64
2016-01-21T03:13:25.256Z,1011.71
2016-01-21T03:14:25.242Z,1011.71
2016-01-21T03:15:25.292Z,1011.75
2016-01-21T03:16:25.326Z,1011.76
2016-01-21T03:17:25.359Z,1011.74
2016-01-21T03:18:25.409Z,1011.75
2016-01-21T03:19:25.443Z,1011.76
2016-01-21T03:20:25.477Z,1011.77
2016-01-21T03:21:25.527Z,1011.75
2016-01-21T03:22:25.561Z,1011.79
2016-01-21T03:23:25.595Z,1011.76
2016-01-21T03:24:25.628Z,1011.8
2016-01-21T03:25:25.678Z,1011.77
2016-01-21T03:26:25.711Z,1011.76
2016-01-21T03:27:25.746Z,1011.81
2016-01-21T03:28:25.796Z,1011.84
2016-01-21T03:29:25.830Z,1011.84
2016-01-21T03:30:25.864Z,1011.82
2016-01-21T03:31:25.913Z,1011.8
2016-01-21T03:32:25.946Z,1011.8
2016-01-21T03:33:25.980Z,1011.86
2016-01-21T03:34:26.030Z,1011.82
2016-01-21T03:35:26.065Z,1011.82
2016-01-21T03:36:26.099Z,1011.84
2016-01-21T03:37:26.133Z,1011.85
2016-01-21T03:38:26.182Z,1011.86
2016-01-21T03:39:26.215Z,1011.85
2016-01-21T03:40:26.249Z,1011.85
2016-01-21T03:41:26.299Z,1011.89
2016-01-21T03:42:26.334Z,1011.9
2016-01-21T03:43:26.367Z,1011.89
2016-01-21T03:44:26.417Z,1011.91
2016-01-21T03:45:26.451Z,1011.9
2016-01-21T03:46:26.484Z,1011.87
2016-01-21T03:47:26.534Z,1011.9
2016-01-21T03:48:26.567Z,1011.94
2016-01-21T03:49:26.617Z,1011.94
2016-01-21T03:50:26.636Z,1011.98
2016-01-21T03:51:26.686Z,1011.95
2016-01-21T03:52:26.719Z,1011.98
2016-01-21T03:53:26.753Z,1012.02
2016-01-21T03:54:26.803Z,1012
2016-01-21T03:55:26.836Z,1012.04
2016-01-21T03:56:26.871Z,1012.02
2016-01-21T03:57:26.905Z,1012.01
2016-01-21T03:58:26.955Z,1012.04
2016-01-21T03:59:26.989Z,1012.06
2016-01-21T04:00:27.038Z,1012.07
2016-01-21T04:01:27.088Z,1012.05
2016-01-21T04:02:27.105Z,1012.05
2016-01-21T04:03:27.140Z,1012.03
2016-01-21T04:04:27.189Z,1012.06
2016-01-21T04:05:27.224Z,1012.03
2016-01-21T04:06:27.257Z,1012.05
2016-01-21T04:07:27.290Z,1012.02
2016-01-21T04:08:27.341Z,1012
2016-01-21T04:09:27.374Z,1012.03
2016-01-21T04:10:27.424Z,1012
2016-01-21T04:11:27.457Z,1012.01
2016-01-21T04:12:27.507Z,1012.02
2016-01-21T04:13:27.526Z,1011.98
2016-01-21T04:14:27.576Z,1011.96
2016-01-21T04:15:27.625Z,1012.01
2016-01-21T04:16:27.643Z,1011.99
2016-01-21T04:17:27.693Z,1011.97
2016-01-21T04:18:27.742Z,1011.95
2016-01-21T04:19:27.761Z,1011.95
2016-01-21T04:20:27.811Z,1011.93
2016-01-21T04:21:27.845Z,1011.96
2016-01-21T04:22:27.879Z,1011.95
2016-01-21T04:23:27.912Z,1011.96
2016-01-21T04:24:27.961Z,1011.95
2016-01-21T04:25:27.995Z,1012
2016-01-21T04:26:28.030Z,1011.98
2016-01-21T04:27:28.392Z,1012.01
2016-01-21T04:28:28.126Z,1012.02
2016-01-21T04:29:28.144Z,1011.99
2016-01-21T04:30:28.194Z,1012.01
2016-01-21T04:31:28.228Z,1012.03
2016-01-21T04:32:28.262Z,1012.02
2016-01-21T04:33:28.296Z,1012.03
2016-01-21T04:34:28.346Z,1012.06
2016-01-21T04:35:28.380Z,1012.03
2016-01-21T04:36:28.413Z,1012.05
2016-01-21T04:37:28.447Z,1012.04
2016-01-21T04:38:28.496Z,1012.1
2016-01-21T04:39:28.530Z,1012.06
2016-01-21T04:40:28.580Z,1012.12
2016-01-21T04:41:28.615Z,1012.16
2016-01-21T04:42:28.649Z,1012.17
2016-01-21T04:43:28.682Z,1012.16
2016-01-21T04:44:28.732Z,1012.18
2016-01-21T04:45:28.766Z,1012.17
2016-01-21T04:46:28.847Z,1012.16
2016-01-21T04:47:28.849Z,1012.13
2016-01-21T04:48:28.884Z,1012.14
2016-01-21T04:49:28.917Z,1012.12
2016-01-21T04:50:28.951Z,1012.18
2016-01-21T04:51:29.000Z,1012.17
2016-01-21T04:52:29.035Z,1012.19
2016-01-21T04:53:29.084Z,1012.21
2016-01-21T04:54:29.118Z,1012.24
2016-01-21T04:55:29.152Z,1012.19
2016-01-21T04:56:29.186Z,1012.19
2016-01-21T04:57:29.236Z,1012.21
2016-01-21T04:58:29.270Z,1012.22
2016-01-21T04:59:29.303Z,1012.21
2016-01-21T05:00:29.337Z,1012.25
2016-01-21T05:01:29.387Z,1012.24
2016-01-21T05:02:29.422Z,1012.27
2016-01-21T05:03:29.455Z,1012.3
2016-01-21T05:04:29.504Z,1012.3
2016-01-21T05:05:29.538Z,1012.3
2016-01-21T05:06:29.572Z,1012.34
2016-01-21T05:07:29.622Z,1012.36
2016-01-21T05:08:29.656Z,1012.36
2016-01-21T05:09:29.690Z,1012.36
2016-01-21T05:10:29.738Z,1012.38
2016-01-21T05:11:29.774Z,1012.38
2016-01-21T05:12:29.823Z,1012.41
2016-01-21T05:13:29.841Z,1012.37
2016-01-21T05:14:29.891Z,1012.42
2016-01-21T05:15:29.924Z,1012.48
2016-01-21T05:16:29.959Z,1012.45
2016-01-21T05:17:30.007Z,1012.44
2016-01-21T05:18:30.043Z,1012.44
2016-01-21T05:19:30.076Z,1012.51
2016-01-21T05:20:30.126Z,1012.5
2016-01-21T05:21:30.160Z,1012.55
2016-01-21T05:22:30.193Z,1012.55
2016-01-21T05:23:30.243Z,1012.57
2016-01-21T05:24:30.276Z,1012.56
2016-01-21T05:25:30.311Z,1012.57
2016-01-21T05:26:30.345Z,1012.62
2016-01-21T05:27:30.395Z,1012.61
2016-01-21T05:28:30.428Z,1012.67
2016-01-21T05:29:30.462Z,1012.69
2016-01-21T05:30:30.512Z,1012.7
2016-01-21T05:31:30.546Z,1012.66
2016-01-21T05:32:30.595Z,1012.66
2016-01-21T05:33:30.629Z,1012.64
2016-01-21T05:34:30.663Z,1012.65
2016-01-21T05:35:30.697Z,1012.62
2016-01-21T05:36:30.731Z,1012.61
2016-01-21T05:37:30.780Z,1012.64
2016-01-21T05:38:30.814Z,1012.67
2016-01-21T05:39:30.849Z,1012.65
2016-01-21T05:40:30.898Z,1012.68
2016-01-21T05:41:30.932Z,1012.68
2016-01-21T05:42:30.966Z,1012.71
2016-01-21T05:43:31.015Z,1012.73
2016-01-21T05:44:31.049Z,1012.7
2016-01-21T05:45:31.083Z,1012.72
2016-01-21T05:46:31.133Z,1012.75
2016-01-21T05:47:31.168Z,1012.78
2016-01-21T05:48:31.201Z,1012.78
2016-01-21T05:49:31.251Z,1012.81
2016-01-21T05:50:31.284Z,1012.84
2016-01-21T05:51:31.318Z,1012.85
2016-01-21T05:52:31.368Z,1012.85
2016-01-21T05:53:31.402Z,1012.87
2016-01-21T05:54:31.437Z,1012.86
2016-01-21T05:55:31.484Z,1012.91
2016-01-21T05:56:31.520Z,1012.92
2016-01-21T05:57:31.553Z,1012.92
2016-01-21T05:58:31.603Z,1012.91
2016-01-21T05:59:31.636Z,1012.89
2016-01-21T06:00:31.686Z,1012.91
2016-01-21T06:01:31.720Z,1012.92
2016-01-21T06:02:31.754Z,1012.96
2016-01-21T06:03:31.789Z,1012.95
2016-01-21T06:04:31.838Z,1013.01
2016-01-21T06:05:31.871Z,1013
2016-01-21T06:06:31.905Z,1013.08
2016-01-21T06:07:31.956Z,1013.07
2016-01-21T06:08:31.989Z,1013.04
2016-01-21T06:09:32.022Z,1013.06
2016-01-21T06:10:32.072Z,1013.04
2016-01-21T06:11:32.107Z,1013.05
2016-01-21T06:12:32.140Z,1013.09
2016-01-21T06:13:32.190Z,1013.11
2016-01-21T06:14:32.224Z,1013.09
2016-01-21T06:15:32.258Z,1013.1
2016-01-21T06:16:32.308Z,1013.08
2016-01-21T06:17:32.341Z,1013.09
2016-01-21T06:18:32.391Z,1013.11
2016-01-21T06:19:32.424Z,1013.13
2016-01-21T06:20:32.459Z,1013.14
2016-01-21T06:21:32.509Z,1013.12
2016-01-21T06:22:32.542Z,1013.13
2016-01-21T06:23:32.592Z,1013.15
2016-01-21T06:24:32.642Z,1013.19
2016-01-21T06:25:32.659Z,1013.15
2016-01-21T06:26:32.693Z,1013.21
2016-01-21T06:27:32.743Z,1013.19
2016-01-21T06:28:32.793Z,1013.15
2016-01-21T06:29:32.826Z,1013.17
2016-01-21T06:30:32.861Z,1013.16
2016-01-21T06:31:32.910Z,1013.18
2016-01-21T06:32:32.945Z,1013.18
2016-01-21T06:33:32.994Z,1013.19
2016-01-21T06:34:33.028Z,1013.18
2016-01-21T06:35:33.062Z,1013.17
2016-01-21T06:36:33.111Z,1013.16
2016-01-21T06:37:33.145Z,1013.21
2016-01-21T06:38:33.211Z,1013.22
2016-01-21T06:39:33.228Z,1013.22
2016-01-21T06:40:33.263Z,1013.22
2016-01-21T06:41:33.296Z,1013.23
2016-01-21T06:42:33.361Z,1013.24
2016-01-21T06:43:33.396Z,1013.19
2016-01-21T06:44:33.429Z,1013.21
2016-01-21T06:45:33.463Z,1013.19
2016-01-21T06:46:33.513Z,1013.22
2016-01-21T06:47:33.547Z,1013.21
2016-01-21T06:48:33.582Z,1013.19
2016-01-21T06:49:33.630Z,1013.2
2016-01-21T06:50:33.665Z,1013.21
2016-01-21T06:51:33.698Z,1013.25
2016-01-21T06:52:33.748Z,1013.26
2016-01-21T06:53:33.782Z,1013.25
2016-01-21T06:54:33.832Z,1013.25
2016-01-21T06:55:33.865Z,1013.31
2016-01-21T06:56:33.899Z,1013.32
2016-01-21T06:57:33.949Z,1013.33
2016-01-21T06:58:33.983Z,1013.33
2016-01-21T06:59:34.017Z,1013.37
2016-01-21T07:00:34.067Z,1013.34
2016-01-21T07:01:34.101Z,1013.38
2016-01-21T07:02:34.150Z,1013.41
2016-01-21T07:03:34.184Z,1013.42
2016-01-21T07:04:34.218Z,1013.45
2016-01-21T07:05:34.267Z,1013.45
2016-01-21T07:06:34.301Z,1013.44
2016-01-21T07:07:34.350Z,1013.48
2016-01-21T07:08:34.386Z,1013.52
2016-01-21T07:09:34.433Z,1013.56
2016-01-21T07:10:34.468Z,1013.55
2016-01-21T07:11:34.502Z,1013.58
2016-01-21T07:12:34.552Z,1013.56
2016-01-21T07:13:34.586Z,1013.63
2016-01-21T07:14:34.635Z,1013.62
2016-01-21T07:15:34.669Z,1013.62
2016-01-21T07:16:34.702Z,1013.67
2016-01-21T07:17:34.753Z,1013.68
2016-01-21T07:18:34.787Z,1013.67
2016-01-21T07:19:34.821Z,1013.71
2016-01-21T07:20:34.870Z,1013.7
2016-01-21T07:21:34.904Z,1013.74
2016-01-21T07:22:34.954Z,1013.8
2016-01-21T07:23:34.988Z,1013.79
2016-01-21T07:24:35.021Z,1013.76
2016-01-21T07:25:35.071Z,1013.82
2016-01-21T07:26:35.105Z,1013.83
2016-01-21T07:27:35.155Z,1013.82
2016-01-21T07:28:35.189Z,1013.83
2016-01-21T07:29:35.222Z,1013.85
2016-01-21T07:30:35.256Z,1013.85
2016-01-21T07:31:35.307Z,1013.88
2016-01-21T07:32:35.339Z,1013.9
2016-01-21T07:33:35.390Z,1013.84
2016-01-21T07:34:35.423Z,1013.87
2016-01-21T07:35:35.473Z,1013.89
2016-01-21T07:36:35.507Z,1013.88
2016-01-21T07:37:35.541Z,1013.91
2016-01-21T07:38:35.591Z,1013.93
2016-01-21T07:39:35.624Z,1013.94
2016-01-21T07:40:35.658Z,1013.95
2016-01-21T07:41:35.708Z,1013.97
2016-01-21T07:42:35.741Z,1013.98
2016-01-21T07:43:35.791Z,1014.02
2016-01-21T07:44:35.825Z,1014.05
2016-01-21T07:45:35.860Z,1014.08
2016-01-21T07:46:35.894Z,1014.12
2016-01-21T07:47:35.943Z,1014.13
2016-01-21T07:48:35.977Z,1014.13
2016-01-21T07:49:36.026Z,1014.15
2016-01-21T07:50:36.060Z,1014.13
2016-01-21T07:51:36.094Z,1014.15
2016-01-21T07:52:36.143Z,1014.16
2016-01-21T07:53:36.177Z,1014.18
2016-01-21T07:54:36.212Z,1014.19
2016-01-21T07:55:36.261Z,1014.21
2016-01-21T07:56:36.295Z,1014.24
2016-01-21T07:57:36.345Z,1014.24
2016-01-21T07:58:36.379Z,1014.23
2016-01-21T07:59:36.412Z,1014.21
2016-01-21T08:00:36.462Z,1014.23
2016-01-21T08:01:36.496Z,1014.24
2016-01-21T08:02:36.531Z,1014.24
2016-01-21T08:03:36.579Z,1014.24
2016-01-21T08:04:36.614Z,1014.24
2016-01-21T08:05:36.663Z,1014.19
2016-01-21T08:06:36.697Z,1014.24
2016-01-21T08:07:36.731Z,1014.25
2016-01-21T08:08:36.765Z,1014.22
2016-01-21T08:09:36.814Z,1014.21
2016-01-21T08:10:36.848Z,1014.23
2016-01-21T08:11:36.883Z,1014.22
2016-01-21T08:12:36.933Z,1014.22
2016-01-21T08:13:36.966Z,1014.25
2016-01-21T08:14:37.016Z,1014.27
2016-01-21T08:15:37.049Z,1014.26
2016-01-21T08:16:37.083Z,1014.3
2016-01-21T08:17:37.133Z,1014.32
2016-01-21T08:18:37.166Z,1014.34
2016-01-21T08:19:37.217Z,1014.38
2016-01-21T08:20:37.250Z,1014.38
2016-01-21T08:21:37.284Z,1014.42
2016-01-21T08:22:37.334Z,1014.44
2016-01-21T08:23:37.368Z,1014.43
2016-01-21T08:24:37.418Z,1014.43
2016-01-21T08:25:37.451Z,1014.42
2016-01-21T08:26:37.485Z,1014.44
2016-01-21T08:27:37.535Z,1014.48
2016-01-21T08:28:37.569Z,1014.47
2016-01-21T08:29:37.604Z,1014.52
2016-01-21T08:30:37.856Z,1014.52
2016-01-21T08:31:37.780Z,1014.55
2016-01-21T08:32:37.736Z,1014.55
2016-01-21T08:33:37.817Z,1014.57
2016-01-21T08:34:37.992Z,1014.58
2016-01-21T08:35:37.854Z,1014.62
2016-01-21T08:36:37.887Z,1014.62
2016-01-21T08:37:37.922Z,1014.63
2016-01-21T08:38:37.970Z,1014.64
2016-01-21T08:39:38.006Z,1014.69
2016-01-21T08:40:38.054Z,1014.69
2016-01-21T08:41:38.089Z,1014.67
2016-01-21T08:42:38.123Z,1014.71
2016-01-21T08:43:38.156Z,1014.73
2016-01-21T08:44:38.206Z,1014.76
2016-01-21T08:45:38.240Z,1014.79
2016-01-21T08:46:38.290Z,1014.81
2016-01-21T08:47:38.324Z,1014.8
2016-01-21T08:48:38.358Z,1014.84
2016-01-21T08:49:38.408Z,1014.89
2016-01-21T08:50:38.442Z,1014.85
2016-01-21T08:51:38.475Z,1014.86
2016-01-21T08:52:38.525Z,1014.87
2016-01-21T08:53:38.559Z,1014.87
2016-01-21T08:54:38.593Z,1014.87
2016-01-21T08:55:38.642Z,1014.88
2016-01-21T08:56:38.678Z,1014.86
2016-01-21T08:57:38.726Z,1014.87
2016-01-21T08:58:38.761Z,1014.89
2016-01-21T08:59:38.810Z,1014.9
2016-01-21T09:00:38.844Z,1014.91
2016-01-21T09:01:38.878Z,1014.93
2016-01-21T09:02:38.912Z,1014.94
2016-01-21T09:03:38.961Z,1014.98
2016-01-21T09:04:38.995Z,1014.97
2016-01-21T09:05:39.029Z,1015.01
2016-01-21T09:06:39.080Z,1014.96
2016-01-21T09:07:39.114Z,1014.93
2016-01-21T09:08:39.147Z,1014.94
2016-01-21T09:09:39.197Z,1014.89
2016-01-21T09:10:39.231Z,1014.9
2016-01-21T09:11:39.264Z,1014.9
2016-01-21T09:12:39.299Z,1014.94
2016-01-21T09:13:39.332Z,1014.93
2016-01-21T09:14:39.366Z,1014.94
2016-01-21T09:15:39.400Z,1014.93
2016-01-21T09:16:39.716Z,1014.97
2016-01-21T09:17:39.485Z,1014.95
2016-01-21T09:18:39.519Z,1014.95
2016-01-21T09:19:39.552Z,1014.97
2016-01-21T09:20:39.601Z,1014.98
2016-01-21T09:21:39.651Z,1015.01
2016-01-21T09:22:39.669Z,1015.02
2016-01-21T09:23:39.704Z,1015.01
2016-01-21T09:24:39.753Z,1015.04
2016-01-21T09:25:39.787Z,1015.05
2016-01-21T09:26:39.821Z,1015.05
2016-01-21T09:27:39.854Z,1015.03
2016-01-21T09:28:39.904Z,1015.06
2016-01-21T09:29:39.937Z,1015.03
2016-01-21T09:30:39.973Z,1015.02
2016-01-21T09:31:40.022Z,1015
2016-01-21T09:32:40.043Z,1015
2016-01-21T09:33:40.062Z,1015.02
2016-01-21T09:34:40.097Z,1015.03
2016-01-21T09:35:40.115Z,1015.04
2016-01-21T09:36:40.133Z,1015.03
2016-01-21T09:37:40.193Z,1015.06
2016-01-21T09:38:40.206Z,1015.05
2016-01-21T09:39:40.249Z,1015.09
2016-01-21T09:40:40.279Z,1015.13
2016-01-21T09:41:40.307Z,1015.11
2016-01-21T09:42:40.355Z,1015.17
2016-01-21T09:43:40.387Z,1015.18
2016-01-21T09:44:40.418Z,1015.19
2016-01-21T09:45:40.465Z,1015.2
2016-01-21T09:46:40.497Z,1015.21
2016-01-21T09:47:40.656Z,1015.2
2016-01-21T09:48:40.986Z,1015.19
2016-01-21T09:49:40.611Z,1015.19
2016-01-21T09:50:40.925Z,1015.19
2016-01-21T09:51:40.709Z,1015.15
2016-01-21T09:52:40.726Z,1015.19
2016-01-21T09:53:40.775Z,1015.18
2016-01-21T09:54:40.809Z,1015.2
2016-01-21T09:55:40.859Z,1015.23
2016-01-21T09:56:40.893Z,1015.23
2016-01-21T09:57:40.927Z,1015.21
2016-01-21T09:58:40.977Z,1015.26
2016-01-21T09:59:41.011Z,1015.29
2016-01-21T10:00:41.311Z,1015.24
2016-01-21T10:01:41.094Z,1015.27
2016-01-21T10:02:41.127Z,1015.27
2016-01-21T10:03:41.178Z,1015.28
2016-01-21T10:04:41.211Z,1015.27
2016-01-21T10:05:41.261Z,1015.3
2016-01-21T10:06:41.295Z,1015.28
2016-01-21T10:07:41.330Z,1015.31
2016-01-21T10:08:41.379Z,1015.29
2016-01-21T10:09:41.412Z,1015.31
2016-01-21T10:10:41.462Z,1015.33
2016-01-21T10:11:41.496Z,1015.34
2016-01-21T10:12:41.546Z,1015.33
2016-01-21T10:13:41.580Z,1015.35
2016-01-21T10:14:41.629Z,1015.37
2016-01-21T10:15:41.663Z,1015.39
2016-01-21T10:16:41.697Z,1015.4
2016-01-21T10:17:41.731Z,1015.44
2016-01-21T10:18:41.968Z,1015.45
2016-01-21T10:19:41.830Z,1015.47
2016-01-21T10:20:41.880Z,1015.43
2016-01-21T10:21:41.899Z,1015.39
2016-01-21T10:22:41.948Z,1015.42
2016-01-21T10:23:41.982Z,1015.44
2016-01-21T10:24:42.031Z,1015.42
2016-01-21T10:25:42.065Z,1015.41
2016-01-21T10:26:42.098Z,1015.39
2016-01-21T10:27:42.149Z,1015.35
2016-01-21T10:28:42.183Z,1015.4
2016-01-21T10:29:42.231Z,1015.35
2016-01-21T10:30:42.267Z,1015.39
2016-01-21T10:31:42.316Z,1015.43
2016-01-21T10:32:42.350Z,1015.39
2016-01-21T10:33:42.399Z,1015.42
2016-01-21T10:34:42.433Z,1015.39
2016-01-21T10:35:42.467Z,1015.43
2016-01-21T10:36:42.516Z,1015.41
2016-01-21T10:37:42.566Z,1015.39
2016-01-21T10:38:42.600Z,1015.38
2016-01-21T10:39:42.633Z,1015.41
2016-01-21T10:40:42.684Z,1015.4
2016-01-21T10:41:42.718Z,1015.4
2016-01-21T10:42:42.752Z,1015.4
2016-01-21T10:43:42.802Z,1015.42
2016-01-21T10:44:42.835Z,1015.45
2016-01-21T10:45:42.885Z,1015.45
2016-01-21T10:46:42.919Z,1015.45
2016-01-21T10:47:42.968Z,1015.42
2016-01-21T10:48:43.002Z,1015.44
2016-01-21T10:49:43.036Z,1015.47
2016-01-21T10:50:43.085Z,1015.43
2016-01-21T10:51:43.120Z,1015.44
2016-01-21T10:52:43.154Z,1015.4
2016-01-21T10:53:43.204Z,1015.42
2016-01-21T10:54:43.237Z,1015.41
2016-01-21T10:55:43.286Z,1015.46
2016-01-21T10:56:43.320Z,1015.44
2016-01-21T10:57:43.839Z,1015.45
2016-01-21T10:58:43.404Z,1015.41
2016-01-21T10:59:43.438Z,1015.42
2016-01-21T11:00:43.488Z,1015.4
2016-01-21T11:01:43.523Z,1015.36
2016-01-21T11:02:43.571Z,1015.34
2016-01-21T11:03:43.606Z,1015.33
2016-01-21T11:04:43.640Z,1015.34
2016-01-21T11:05:43.690Z,1015.3
2016-01-21T11:06:43.724Z,1015.32
2016-01-21T11:07:43.773Z,1015.29
2016-01-21T11:08:43.807Z,1015.28
2016-01-21T11:09:43.856Z,1015.3
2016-01-21T11:10:43.876Z,1015.31
2016-01-21T11:11:43.926Z,1015.29
2016-01-21T11:12:43.959Z,1015.28
2016-01-21T11:13:44.008Z,1015.29
2016-01-21T11:14:44.042Z,1015.31
2016-01-21T11:15:44.093Z,1015.28
2016-01-21T11:16:44.125Z,1015.28
2016-01-21T11:17:44.159Z,1015.26
2016-01-21T11:18:44.209Z,1015.24
2016-01-21T11:19:44.243Z,1015.26
2016-01-21T11:20:44.278Z,1015.24
2016-01-21T11:21:44.327Z,1015.22
2016-01-21T11:22:44.376Z,1015.22
2016-01-21T11:23:44.411Z,1015.27
2016-01-21T11:24:44.444Z,1015.25
2016-01-21T11:25:44.494Z,1015.29
2016-01-21T11:26:44.528Z,1015.31
2016-01-21T11:27:44.562Z,1015.32
2016-01-21T11:28:44.611Z,1015.28
2016-01-21T11:29:44.646Z,1015.29
2016-01-21T11:30:44.695Z,1015.3
2016-01-21T11:31:44.730Z,1015.24
2016-01-21T11:32:44.764Z,1015.26
2016-01-21T11:33:44.813Z,1015.26
2016-01-21T11:34:44.847Z,1015.27
2016-01-21T11:35:44.886Z,1015.26
2016-01-21T11:36:44.936Z,1015.24
2016-01-21T11:37:44.969Z,1015.25
2016-01-21T11:38:45.019Z,1015.27
2016-01-21T11:39:45.052Z,1015.25
2016-01-21T11:40:45.087Z,1015.24
2016-01-21T11:41:45.136Z,1015.21
2016-01-21T11:42:45.174Z,1015.23
2016-01-21T11:43:45.208Z,1015.19
2016-01-21T11:44:45.241Z,1015.21
2016-01-21T11:45:45.292Z,1015.23
2016-01-21T11:46:45.325Z,1015.25
2016-01-21T11:47:45.374Z,1015.26
2016-01-21T11:48:45.408Z,1015.26
2016-01-21T11:49:45.458Z,1015.3
2016-01-21T11:50:45.493Z,1015.34
2016-01-21T11:51:45.527Z,1015.3
2016-01-21T11:52:45.576Z,1015.34
2016-01-21T11:53:45.610Z,1015.35
2016-01-21T11:54:45.660Z,1015.35
2016-01-21T11:55:45.694Z,1015.38
2016-01-21T11:56:45.727Z,1015.37
2016-01-21T11:57:45.776Z,1015.36
2016-01-21T11:58:45.810Z,1015.36
2016-01-21T11:59:45.985Z,1015.31
2016-01-21T12:00:46.395Z,1015.29
2016-01-21T12:01:45.941Z,1015.26
2016-01-21T12:02:45.976Z,1015.27
2016-01-21T12:03:46.016Z,1015.25
2016-01-21T12:04:46.049Z,1015.23
2016-01-21T12:05:46.083Z,1015.23
2016-01-21T12:06:46.132Z,1015.2
2016-01-21T12:07:46.166Z,1015.2
2016-01-21T12:08:46.216Z,1015.19